createdAt,value
2017-04-02T00:00:22.039Z,12.84
2017-04-02T00:01:21.760Z,12.75
2017-04-02T00:02:22.071Z,12.78
2017-04-02T00:03:21.996Z,12.78
2017-04-02T00:04:21.984Z,12.77
2017-04-02T00:05:21.965Z,12.75
2017-04-02T00:06:21.963Z,12.74
2017-04-02T00:07:21.940Z,12.75
2017-04-02T00:08:21.930Z,12.71
2017-04-02T00:09:21.912Z,12.74
2017-04-02T00:10:22.028Z,12.69
2017-04-02T00:11:22.111Z,12.74
2017-04-02T00:12:22.022Z,12.69
2017-04-02T00:13:21.861Z,12.66
2017-04-02T00:14:21.851Z,12.6
2017-04-02T00:15:21.967Z,12.64
2017-04-02T00:16:21.827Z,12.67
2017-04-02T00:17:21.813Z,12.66
2017-04-02T00:18:21.811Z,12.7
2017-04-02T00:19:21.790Z,12.63
2017-04-02T00:20:21.784Z,12.57
2017-04-02T00:21:21.448Z,12.6
2017-04-02T00:22:21.747Z,12.49
2017-04-02T00:23:21.739Z,12.57
2017-04-02T00:24:21.904Z,12.48
2017-04-02T00:25:21.605Z,12.56
2017-04-02T00:26:21.866Z,12.57
2017-04-02T00:27:21.815Z,12.45
2017-04-02T00:28:21.349Z,12.46
2017-04-02T00:29:21.660Z,12.41
2017-04-02T00:30:21.640Z,12.46
2017-04-02T00:31:21.626Z,12.46
2017-04-02T00:32:21.616Z,12.48
2017-04-02T00:33:21.595Z,12.48
2017-04-02T00:34:21.584Z,12.42
2017-04-02T00:35:21.567Z,12.38
2017-04-02T00:36:21.556Z,12.42
2017-04-02T00:37:21.573Z,12.34
2017-04-02T00:38:21.657Z,12.38
2017-04-02T00:39:21.723Z,12.44
2017-04-02T00:40:21.733Z,12.41
2017-04-02T00:41:21.716Z,12.38
2017-04-02T00:42:21.676Z,12.34
2017-04-02T00:43:21.553Z,12.29
2017-04-02T00:44:21.240Z,12.37
2017-04-02T00:45:21.443Z,12.26
2017-04-02T00:46:21.430Z,12.24
2017-04-02T00:47:21.408Z,12.3
2017-04-02T00:48:21.393Z,12.27
2017-04-02T00:49:21.379Z,12.23
2017-04-02T00:50:21.364Z,12.16
2017-04-02T00:51:21.417Z,12.15
2017-04-02T00:52:21.412Z,12.19
2017-04-02T00:53:21.472Z,12.19
2017-04-02T00:54:21.538Z,12.16
2017-04-02T00:55:21.433Z,12.16
2017-04-02T00:56:21.173Z,12.23
2017-04-02T00:57:21.453Z,12.24
2017-04-02T00:58:20.997Z,12.19
2017-04-02T00:59:20.937Z,12.19
2017-04-02T01:00:21.236Z,12.13
2017-04-02T01:01:21.222Z,12.23
2017-04-02T01:02:21.207Z,12.16
2017-04-02T01:03:21.197Z,12.2
2017-04-02T01:04:21.183Z,12.12
2017-04-02T01:05:21.161Z,12.09
2017-04-02T01:06:21.150Z,12.15
2017-04-02T01:07:21.138Z,12.09
2017-04-02T01:08:21.117Z,12.11
2017-04-02T01:09:21.105Z,12.12
2017-04-02T01:10:21.098Z,12.12
2017-04-02T01:11:21.080Z,12.04
2017-04-02T01:12:21.233Z,12.02
2017-04-02T01:13:21.114Z,12.09
2017-04-02T01:14:21.037Z,12.09
2017-04-02T01:15:20.458Z,12.02
2017-04-02T01:16:21.012Z,12.12
2017-04-02T01:17:21.028Z,12.06
2017-04-02T01:18:20.986Z,12.01
2017-04-02T01:19:21.080Z,12.08
2017-04-02T01:20:20.958Z,12.11
2017-04-02T01:21:21.134Z,11.96
2017-04-02T01:22:21.089Z,12.08
2017-04-02T01:23:20.756Z,11.99
2017-04-02T01:24:21.003Z,12.11
2017-04-02T01:25:21.101Z,12.02
2017-04-02T01:26:20.947Z,12.11
2017-04-02T01:27:21.109Z,12.12
2017-04-02T01:28:20.856Z,11.96
2017-04-02T01:29:20.842Z,12.02
2017-04-02T01:30:20.838Z,12.04
2017-04-02T01:31:20.814Z,12.02
2017-04-02T01:32:20.807Z,11.96
2017-04-02T01:33:20.784Z,12.04
2017-04-02T01:34:20.459Z,11.96
2017-04-02T01:35:20.765Z,11.89
2017-04-02T01:36:20.755Z,11.9
2017-04-02T01:37:20.761Z,11.93
2017-04-02T01:38:20.409Z,11.94
2017-04-02T01:39:20.393Z,11.78
2017-04-02T01:40:20.689Z,11.77
2017-04-02T01:41:20.615Z,11.8
2017-04-02T01:42:20.833Z,11.82
2017-04-02T01:43:20.328Z,11.82
2017-04-02T01:44:20.629Z,11.77
2017-04-02T01:45:20.610Z,11.78
2017-04-02T01:46:20.596Z,11.82
2017-04-02T01:47:20.271Z,11.78
2017-04-02T01:48:20.568Z,11.85
2017-04-02T01:49:20.553Z,11.82
2017-04-02T01:50:20.595Z,11.78
2017-04-02T01:51:20.531Z,11.83
2017-04-02T01:52:20.210Z,11.85
2017-04-02T01:53:20.499Z,11.8
2017-04-02T01:54:20.488Z,11.77
2017-04-02T01:55:20.510Z,11.8
2017-04-02T01:56:20.653Z,11.87
2017-04-02T01:57:20.650Z,11.77
2017-04-02T01:58:20.431Z,11.87
2017-04-02T01:59:20.418Z,11.85
2017-04-02T02:00:20.402Z,11.8
2017-04-02T02:01:20.394Z,11.89
2017-04-02T02:02:20.388Z,11.9
2017-04-02T02:03:20.361Z,11.82
2017-04-02T02:04:20.031Z,11.94
2017-04-02T02:05:20.425Z,11.87
2017-04-02T02:06:20.325Z,11.93
2017-04-02T02:07:20.459Z,11.96
2017-04-02T02:08:20.295Z,11.87
2017-04-02T02:09:20.277Z,11.96
2017-04-02T02:10:20.525Z,11.96
2017-04-02T02:11:20.676Z,11.89
2017-04-02T02:12:20.332Z,11.87
2017-04-02T02:13:20.223Z,11.89
2017-04-02T02:14:19.911Z,11.94
2017-04-02T02:15:20.194Z,11.86
2017-04-02T02:16:20.187Z,12.01
2017-04-02T02:17:20.163Z,11.96
2017-04-02T02:18:20.148Z,11.93
2017-04-02T02:19:20.138Z,11.94
2017-04-02T02:20:20.121Z,11.96
2017-04-02T02:21:20.105Z,11.94
2017-04-02T02:22:20.094Z,11.96
2017-04-02T02:23:20.078Z,11.9
2017-04-02T02:24:20.213Z,11.9
2017-04-02T02:25:20.278Z,12.01
2017-04-02T02:26:19.911Z,11.94
2017-04-02T02:27:20.237Z,11.9
2017-04-02T02:28:20.012Z,11.9
2017-04-02T02:29:19.734Z,11.96
2017-04-02T02:30:19.991Z,11.89
2017-04-02T02:31:20.009Z,11.96
2017-04-02T02:32:20.218Z,11.97
2017-04-02T02:33:19.630Z,11.96
2017-04-02T02:34:19.938Z,11.9
2017-04-02T02:35:19.912Z,11.96
2017-04-02T02:36:20.058Z,11.97
2017-04-02T02:37:19.903Z,11.9
2017-04-02T02:38:19.887Z,11.97
2017-04-02T02:39:19.882Z,11.97
2017-04-02T02:40:20.135Z,11.96
2017-04-02T02:41:20.003Z,12.01
2017-04-02T02:42:20.042Z,11.99
2017-04-02T02:43:19.490Z,11.97
2017-04-02T02:44:19.790Z,12.01
2017-04-02T02:45:19.473Z,12.01
2017-04-02T02:46:19.775Z,11.97
2017-04-02T02:47:19.760Z,12.04
2017-04-02T02:48:19.734Z,12.01
2017-04-02T02:49:19.723Z,11.94
2017-04-02T02:50:19.708Z,12.02
2017-04-02T02:51:19.776Z,11.97
2017-04-02T02:52:19.686Z,11.94
2017-04-02T02:53:19.664Z,11.97
2017-04-02T02:54:19.653Z,12.01
2017-04-02T02:55:19.459Z,11.97
2017-04-02T02:56:19.076Z,11.96
2017-04-02T02:57:19.718Z,11.96
2017-04-02T02:58:19.592Z,11.96
2017-04-02T02:59:19.601Z,12.01
2017-04-02T03:00:19.603Z,11.99
2017-04-02T03:01:19.552Z,11.96
2017-04-02T03:02:19.227Z,11.94
2017-04-02T03:03:19.525Z,11.96
2017-04-02T03:04:19.566Z,11.96
2017-04-02T03:05:19.504Z,11.99
2017-04-02T03:06:19.294Z,11.99
2017-04-02T03:07:19.646Z,11.97
2017-04-02T03:08:19.335Z,11.99
2017-04-02T03:09:19.707Z,11.96
2017-04-02T03:10:19.618Z,12.01
2017-04-02T03:11:19.569Z,12.01
2017-04-02T03:12:19.454Z,11.97
2017-04-02T03:13:19.395Z,11.94
2017-04-02T03:14:19.371Z,11.9
2017-04-02T03:15:19.366Z,11.96
2017-04-02T03:16:19.352Z,11.94
2017-04-02T03:17:19.019Z,11.89
2017-04-02T03:18:19.004Z,11.93
2017-04-02T03:19:19.303Z,11.86
2017-04-02T03:20:19.286Z,11.93
2017-04-02T03:21:19.272Z,11.93
2017-04-02T03:22:18.973Z,11.87
2017-04-02T03:23:19.252Z,11.8
2017-04-02T03:24:19.328Z,11.8
2017-04-02T03:25:19.262Z,11.89
2017-04-02T03:26:18.942Z,11.87
2017-04-02T03:27:19.301Z,11.87
2017-04-02T03:28:19.198Z,11.8
2017-04-02T03:29:19.165Z,11.85
2017-04-02T03:30:18.838Z,11.82
2017-04-02T03:31:19.137Z,11.8
2017-04-02T03:32:19.128Z,11.82
2017-04-02T03:33:19.142Z,11.78
2017-04-02T03:34:19.098Z,11.78
2017-04-02T03:35:19.077Z,11.82
2017-04-02T03:36:19.066Z,11.77
2017-04-02T03:37:18.736Z,11.78
2017-04-02T03:38:19.162Z,11.78
2017-04-02T03:39:19.030Z,11.8
2017-04-02T03:40:18.696Z,11.75
2017-04-02T03:41:19.171Z,11.8
2017-04-02T03:42:18.792Z,11.78
2017-04-02T03:43:18.970Z,11.8
2017-04-02T03:44:18.953Z,11.78
2017-04-02T03:45:18.942Z,11.83
2017-04-02T03:46:18.618Z,11.82
2017-04-02T03:47:18.925Z,11.78
2017-04-02T03:48:18.905Z,11.78
2017-04-02T03:49:18.879Z,11.78
2017-04-02T03:50:18.559Z,11.8
2017-04-02T03:51:18.859Z,11.83
2017-04-02T03:52:18.844Z,11.83
2017-04-02T03:53:18.563Z,11.77
2017-04-02T03:54:18.891Z,11.8
2017-04-02T03:55:18.954Z,11.77
2017-04-02T03:56:18.821Z,11.77
2017-04-02T03:57:18.836Z,11.68
2017-04-02T03:58:18.766Z,11.8
2017-04-02T03:59:18.440Z,11.68
2017-04-02T04:00:18.741Z,11.65
2017-04-02T04:01:18.724Z,11.7
2017-04-02T04:02:18.736Z,11.7
2017-04-02T04:03:18.692Z,11.7
2017-04-02T04:04:18.364Z,11.74
2017-04-02T04:05:18.675Z,11.71
2017-04-02T04:06:18.657Z,11.7
2017-04-02T04:07:18.803Z,11.68
2017-04-02T04:08:18.635Z,11.65
2017-04-02T04:09:18.614Z,11.59
2017-04-02T04:10:18.597Z,11.62
2017-04-02T04:11:18.826Z,11.65
2017-04-02T04:12:18.836Z,11.67
2017-04-02T04:13:18.241Z,11.65
2017-04-02T04:14:18.540Z,11.61
2017-04-02T04:15:18.266Z,11.53
2017-04-02T04:16:18.199Z,11.5
2017-04-02T04:17:18.506Z,11.53
2017-04-02T04:18:18.492Z,11.53
2017-04-02T04:19:18.475Z,11.53
2017-04-02T04:20:18.458Z,11.54
2017-04-02T04:21:18.135Z,11.54
2017-04-02T04:22:18.114Z,11.54
2017-04-02T04:23:18.564Z,11.5
2017-04-02T04:24:18.224Z,11.56
2017-04-02T04:25:18.499Z,11.53
2017-04-02T04:26:18.087Z,11.56
2017-04-02T04:27:18.500Z,11.56
2017-04-02T04:28:18.338Z,11.57
2017-04-02T04:29:18.327Z,11.54
2017-04-02T04:30:18.010Z,11.53
2017-04-02T04:31:17.998Z,11.52
2017-04-02T04:32:18.288Z,11.52
2017-04-02T04:33:18.284Z,11.54
2017-04-02T04:34:18.258Z,11.56
2017-04-02T04:35:18.295Z,11.52
2017-04-02T04:36:18.348Z,11.52
2017-04-02T04:37:18.310Z,11.49
2017-04-02T04:38:18.329Z,11.47
2017-04-02T04:39:18.275Z,11.47
2017-04-02T04:40:18.364Z,11.5
2017-04-02T04:41:18.326Z,11.44
2017-04-02T04:42:18.280Z,11.56
2017-04-02T04:43:18.132Z,11.56
2017-04-02T04:44:18.315Z,11.39
2017-04-02T04:45:18.111Z,11.43
2017-04-02T04:46:18.086Z,11.44
2017-04-02T04:47:18.080Z,11.47
2017-04-02T04:48:18.065Z,11.41
2017-04-02T04:49:17.874Z,11.41
2017-04-02T04:50:18.221Z,11.43
2017-04-02T04:51:18.031Z,11.43
2017-04-02T04:52:18.013Z,11.5
2017-04-02T04:53:17.375Z,11.46
2017-04-02T04:54:17.986Z,11.49
2017-04-02T04:55:17.978Z,11.46
2017-04-02T04:56:18.056Z,11.49
2017-04-02T04:57:18.072Z,11.47
2017-04-02T04:58:17.614Z,11.49
2017-04-02T04:59:17.604Z,11.53
2017-04-02T05:00:18.165Z,11.52
2017-04-02T05:01:17.889Z,11.54
2017-04-02T05:02:17.974Z,11.47
2017-04-02T05:03:17.878Z,11.46
2017-04-02T05:04:17.950Z,11.47
2017-04-02T05:05:17.703Z,11.44
2017-04-02T05:06:17.501Z,11.46
2017-04-02T05:07:17.803Z,11.44
2017-04-02T05:08:17.847Z,11.47
2017-04-02T05:09:17.982Z,11.41
2017-04-02T05:10:17.854Z,11.39
2017-04-02T05:11:17.965Z,11.41
2017-04-02T05:12:18.011Z,11.31
2017-04-02T05:13:17.715Z,11.39
2017-04-02T05:14:17.694Z,11.36
2017-04-02T05:15:17.686Z,11.34
2017-04-02T05:16:17.672Z,11.36
2017-04-02T05:17:17.652Z,11.43
2017-04-02T05:18:17.636Z,11.43
2017-04-02T05:19:17.628Z,11.44
2017-04-02T05:20:17.613Z,11.47
2017-04-02T05:21:17.295Z,11.43
2017-04-02T05:22:17.582Z,11.46
2017-04-02T05:23:17.741Z,11.39
2017-04-02T05:24:17.711Z,11.49
2017-04-02T05:25:17.731Z,11.54
2017-04-02T05:26:17.647Z,11.56
2017-04-02T05:27:17.840Z,11.44
2017-04-02T05:28:17.497Z,11.46
2017-04-02T05:29:17.494Z,11.56
2017-04-02T05:30:17.473Z,11.47
2017-04-02T05:31:17.464Z,11.52
2017-04-02T05:32:17.449Z,11.49
2017-04-02T05:33:17.431Z,11.47
2017-04-02T05:34:17.443Z,11.5
2017-04-02T05:35:17.405Z,11.5
2017-04-02T05:36:17.655Z,11.54
2017-04-02T05:37:17.410Z,11.54
2017-04-02T05:38:17.451Z,11.53
2017-04-02T05:39:17.508Z,11.52
2017-04-02T05:40:17.402Z,11.59
2017-04-02T05:41:17.470Z,11.64
2017-04-02T05:42:17.320Z,11.67
2017-04-02T05:43:17.287Z,11.52
2017-04-02T05:44:17.278Z,11.56
2017-04-02T05:45:17.261Z,11.65
2017-04-02T05:46:17.243Z,11.67
2017-04-02T05:47:16.929Z,11.67
2017-04-02T05:48:17.216Z,11.64
2017-04-02T05:49:17.205Z,11.67
2017-04-02T05:50:17.340Z,11.65
2017-04-02T05:51:17.180Z,11.68
2017-04-02T05:52:16.920Z,11.8
2017-04-02T05:53:16.851Z,11.71
2017-04-02T05:54:17.143Z,11.78
2017-04-02T05:55:17.057Z,11.8
2017-04-02T05:56:17.344Z,11.68
2017-04-02T05:57:17.331Z,11.65
2017-04-02T05:58:16.769Z,11.67
2017-04-02T05:59:17.067Z,11.67
2017-04-02T06:00:17.063Z,11.8
2017-04-02T06:01:17.061Z,11.82
2017-04-02T06:02:17.034Z,11.72
2017-04-02T06:03:16.752Z,11.7
2017-04-02T06:04:16.685Z,11.78
2017-04-02T06:05:16.671Z,11.78
2017-04-02T06:06:17.027Z,11.8
2017-04-02T06:07:16.969Z,11.78
2017-04-02T06:08:16.957Z,11.85
2017-04-02T06:09:17.191Z,11.83
2017-04-02T06:10:17.415Z,11.9
2017-04-02T06:11:17.335Z,11.86
2017-04-02T06:12:17.174Z,11.93
2017-04-02T06:13:16.878Z,11.96
2017-04-02T06:14:16.544Z,11.89
2017-04-02T06:15:16.844Z,11.97
2017-04-02T06:16:16.828Z,11.89
2017-04-02T06:17:16.987Z,12.01
2017-04-02T06:18:16.501Z,11.96
2017-04-02T06:19:16.793Z,11.93
2017-04-02T06:20:16.468Z,11.96
2017-04-02T06:21:16.901Z,11.96
2017-04-02T06:22:16.850Z,11.85
2017-04-02T06:23:17.178Z,12.01
2017-04-02T06:24:16.940Z,11.96
2017-04-02T06:25:17.241Z,11.99
2017-04-02T06:26:17.860Z,11.94
2017-04-02T06:27:17.134Z,11.96
2017-04-02T06:28:16.711Z,11.97
2017-04-02T06:29:16.035Z,11.96
2017-04-02T06:30:16.634Z,11.96
2017-04-02T06:31:16.668Z,11.99
2017-04-02T06:32:17.018Z,11.99
2017-04-02T06:33:16.638Z,12.08
2017-04-02T06:34:16.785Z,12.02
2017-04-02T06:35:16.581Z,12.06
2017-04-02T06:36:16.564Z,12.12
2017-04-02T06:37:16.546Z,12.15
2017-04-02T06:38:16.229Z,12.15
2017-04-02T06:39:16.522Z,12.2
2017-04-02T06:40:16.484Z,12.27
2017-04-02T06:41:16.179Z,12.26
2017-04-02T06:42:16.968Z,12.21
2017-04-02T06:43:16.151Z,12.37
2017-04-02T06:44:16.650Z,12.33
2017-04-02T06:45:16.435Z,12.42
2017-04-02T06:46:16.419Z,12.34
2017-04-02T06:47:16.408Z,12.26
2017-04-02T06:48:16.391Z,12.3
2017-04-02T06:49:16.378Z,12.31
2017-04-02T06:50:16.059Z,12.29
2017-04-02T06:51:16.353Z,12.27
2017-04-02T06:52:16.033Z,12.31
2017-04-02T06:53:16.022Z,12.34
2017-04-02T06:54:16.017Z,12.42
2017-04-02T06:55:15.997Z,12.39
2017-04-02T06:56:17.179Z,12.46
2017-04-02T06:57:16.552Z,12.49
2017-04-02T06:58:15.955Z,12.52
2017-04-02T06:59:16.246Z,12.52
2017-04-02T07:00:15.924Z,12.66
2017-04-02T07:01:16.315Z,12.67
2017-04-02T07:02:15.581Z,12.67
2017-04-02T07:03:16.088Z,12.67
2017-04-02T07:04:15.872Z,12.56
2017-04-02T07:05:16.433Z,12.69
2017-04-02T07:06:16.178Z,12.6
2017-04-02T07:07:16.995Z,12.71
2017-04-02T07:08:15.818Z,12.74
2017-04-02T07:09:16.824Z,12.74
2017-04-02T07:10:16.488Z,12.81
2017-04-02T07:11:16.660Z,12.84
2017-04-02T07:12:16.878Z,12.85
2017-04-02T07:13:16.068Z,12.85
2017-04-02T07:14:16.053Z,12.92
2017-04-02T07:15:16.037Z,12.85
2017-04-02T07:16:16.030Z,12.82
2017-04-02T07:17:16.012Z,12.79
2017-04-02T07:18:15.996Z,12.92
2017-04-02T07:19:15.987Z,12.81
2017-04-02T07:20:15.973Z,12.77
2017-04-02T07:21:15.966Z,12.77
2017-04-02T07:22:15.949Z,12.69
2017-04-02T07:23:15.319Z,12.66
2017-04-02T07:24:15.615Z,12.71
2017-04-02T07:25:15.767Z,12.71
2017-04-02T07:26:16.165Z,12.67
2017-04-02T07:27:15.861Z,12.67
2017-04-02T07:28:15.871Z,12.77
2017-04-02T07:29:15.556Z,12.71
2017-04-02T07:30:16.087Z,12.78
2017-04-02T07:31:15.839Z,12.78
2017-04-02T07:32:16.064Z,12.85
2017-04-02T07:33:15.811Z,12.75
2017-04-02T07:34:15.802Z,12.79
2017-04-02T07:35:15.782Z,12.89
2017-04-02T07:36:15.765Z,12.93
2017-04-02T07:37:15.755Z,12.87
2017-04-02T07:38:15.747Z,12.96
2017-04-02T07:39:15.734Z,12.99
2017-04-02T07:40:15.096Z,12.97
2017-04-02T07:41:16.036Z,12.99
2017-04-02T07:42:16.124Z,13.02
2017-04-02T07:43:15.365Z,12.97
2017-04-02T07:44:15.660Z,13.12
2017-04-02T07:45:15.343Z,13.12
2017-04-02T07:46:15.643Z,13.11
2017-04-02T07:47:15.622Z,13.12
2017-04-02T07:48:15.297Z,13.07
2017-04-02T07:49:15.605Z,13.21
2017-04-02T07:50:15.595Z,13.15
2017-04-02T07:51:15.270Z,13.24
2017-04-02T07:52:15.855Z,13.3
2017-04-02T07:53:15.712Z,13.2
2017-04-02T07:54:15.596Z,13.25
2017-04-02T07:55:15.845Z,13.21
2017-04-02T07:56:15.989Z,13.33
2017-04-02T07:57:16.009Z,13.37
2017-04-02T07:58:15.493Z,13.49
2017-04-02T07:59:15.508Z,13.51
2017-04-02T08:00:15.464Z,13.62
2017-04-02T08:01:15.460Z,13.52
2017-04-02T08:02:15.434Z,13.61
2017-04-02T08:03:15.157Z,13.58
2017-04-02T08:04:15.127Z,13.56
2017-04-02T08:05:15.403Z,13.65
2017-04-02T08:06:15.388Z,13.59
2017-04-02T08:07:15.386Z,13.7
2017-04-02T08:08:15.613Z,13.69
2017-04-02T08:09:15.849Z,13.84
2017-04-02T08:10:16.365Z,13.79
2017-04-02T08:11:15.929Z,13.77
2017-04-02T08:12:15.847Z,13.88
2017-04-02T08:13:14.992Z,13.87
2017-04-02T08:14:15.290Z,13.94
2017-04-02T08:15:14.971Z,14.06
2017-04-02T08:16:14.636Z,14.07
2017-04-02T08:17:15.254Z,14.07
2017-04-02T08:18:14.618Z,14.29
2017-04-02T08:19:15.234Z,14.72
2017-04-02T08:20:14.907Z,15.35
2017-04-02T08:21:15.216Z,16.15
2017-04-02T08:22:14.953Z,16.56
2017-04-02T08:23:15.190Z,16.99
2017-04-02T08:24:15.178Z,17.5
2017-04-02T08:25:15.172Z,17.84
2017-04-02T08:26:15.162Z,17.94
2017-04-02T08:27:15.157Z,18.34
2017-04-02T08:28:14.831Z,18.73
2017-04-02T08:29:14.823Z,19.21
2017-04-02T08:30:15.129Z,19.91
2017-04-02T08:31:14.496Z,20.24
2017-04-02T08:32:15.116Z,20.72
2017-04-02T08:33:15.106Z,21.02
2017-04-02T08:34:15.098Z,21.08
2017-04-02T08:35:15.090Z,21.34
2017-04-02T08:36:14.767Z,21.04
2017-04-02T08:37:15.081Z,20.91
2017-04-02T08:38:14.794Z,21.08
2017-04-02T08:39:14.749Z,21.51
2017-04-02T08:40:15.053Z,21.72
2017-04-02T08:41:15.062Z,21.63
2017-04-02T08:42:15.046Z,21.91
2017-04-02T08:43:15.044Z,21.76
2017-04-02T08:44:15.241Z,21.64
2017-04-02T08:45:15.025Z,21.59
2017-04-02T08:46:15.020Z,20.84
2017-04-02T08:47:14.700Z,20.95
2017-04-02T08:48:15.018Z,20.49
2017-04-02T08:49:15.005Z,20.35
2017-04-02T08:50:14.995Z,20.18
2017-04-02T08:51:14.992Z,20.02
2017-04-02T08:52:14.999Z,19.87
2017-04-02T08:53:14.671Z,19.32
2017-04-02T08:54:14.980Z,18.43
2017-04-02T08:55:14.661Z,18.5
2017-04-02T08:56:14.964Z,18.28
2017-04-02T08:57:14.958Z,18.62
2017-04-02T08:58:14.639Z,18.67
2017-04-02T08:59:14.947Z,18.77
2017-04-02T09:00:14.630Z,18.8
2017-04-02T09:01:14.987Z,18.42
2017-04-02T09:02:14.928Z,18.28
2017-04-02T09:03:14.928Z,18.27
2017-04-02T09:04:14.609Z,18.27
2017-04-02T09:05:14.922Z,18.22
2017-04-02T09:06:14.908Z,18.09
2017-04-02T09:07:14.906Z,18.24
2017-04-02T09:08:14.895Z,17.73
2017-04-02T09:09:14.892Z,17.66
2017-04-02T09:10:14.884Z,17.33
2017-04-02T09:11:14.890Z,17.47
2017-04-02T09:12:14.896Z,17.57
2017-04-02T09:13:14.906Z,17.91
2017-04-02T09:14:14.895Z,18.36
2017-04-02T09:15:14.859Z,18.61
2017-04-02T09:16:14.538Z,18.43
2017-04-02T09:17:14.839Z,18.03
2017-04-02T09:18:14.213Z,17.71
2017-04-02T09:19:14.844Z,17.32
2017-04-02T09:20:14.856Z,17.15
2017-04-02T09:21:14.818Z,16.85
2017-04-02T09:22:14.200Z,16.8
2017-04-02T09:23:14.824Z,16.71
2017-04-02T09:24:14.494Z,16.7
2017-04-02T09:25:14.796Z,16.93
2017-04-02T09:26:14.788Z,16.85
2017-04-02T09:27:14.777Z,16.8
2017-04-02T09:28:14.770Z,16.81
2017-04-02T09:29:14.487Z,16.8
2017-04-02T09:30:14.755Z,16.95
2017-04-02T09:31:14.750Z,16.95
2017-04-02T09:32:14.743Z,17.17
2017-04-02T09:33:14.734Z,17.48
2017-04-02T09:34:14.422Z,17.67
2017-04-02T09:35:14.722Z,17.73
2017-04-02T09:36:14.409Z,17.88
2017-04-02T09:37:14.397Z,18.17
2017-04-02T09:38:14.752Z,18.64
2017-04-02T09:39:14.379Z,18.9
2017-04-02T09:40:14.372Z,18.92
2017-04-02T09:41:14.371Z,18.97
2017-04-02T09:42:14.358Z,19.05
2017-04-02T09:43:14.361Z,19.24
2017-04-02T09:44:14.348Z,19.28
2017-04-02T09:45:14.351Z,19.23
2017-04-02T09:46:14.652Z,19.32
2017-04-02T09:47:14.649Z,19.54
2017-04-02T09:48:14.635Z,19.42
2017-04-02T09:49:14.678Z,19.18
2017-04-02T09:50:14.647Z,18.79
2017-04-02T09:51:14.311Z,18.77
2017-04-02T09:52:14.307Z,18.98
2017-04-02T09:53:14.608Z,18.98
2017-04-02T09:54:14.600Z,18.92
2017-04-02T09:55:14.598Z,19.23
2017-04-02T09:56:14.282Z,19.55
2017-04-02T09:57:14.289Z,19.75
2017-04-02T09:58:14.580Z,19.72
2017-04-02T09:59:14.573Z,19.86
2017-04-02T10:00:14.259Z,19.93
2017-04-02T10:01:14.248Z,19.88
2017-04-02T10:02:14.244Z,19.94
2017-04-02T10:03:14.238Z,19.9
2017-04-02T10:04:14.230Z,19.79
2017-04-02T10:05:14.230Z,19.51
2017-04-02T10:06:14.537Z,19.1
2017-04-02T10:07:14.224Z,18.64
2017-04-02T10:08:14.525Z,18.21
2017-04-02T10:09:14.531Z,18.1
2017-04-02T10:10:14.202Z,17.97
2017-04-02T10:11:14.202Z,17.54
2017-04-02T10:12:14.198Z,17.48
2017-04-02T10:13:14.191Z,17.78
2017-04-02T10:14:14.184Z,18.09
2017-04-02T10:15:14.493Z,18.22
2017-04-02T10:16:14.173Z,18.46
2017-04-02T10:17:14.167Z,18.34
2017-04-02T10:18:14.158Z,18.37
2017-04-02T10:19:14.163Z,18.92
2017-04-02T10:20:13.843Z,19.4
2017-04-02T10:21:14.509Z,19.73
2017-04-02T10:22:14.455Z,19.7
2017-04-02T10:23:14.443Z,19.68
2017-04-02T10:24:14.442Z,19.69
2017-04-02T10:25:14.433Z,19.58
2017-04-02T10:26:14.431Z,19.57
2017-04-02T10:27:14.198Z,19.78
2017-04-02T10:28:14.103Z,19.87
2017-04-02T10:29:14.414Z,20.08
2017-04-02T10:30:14.411Z,20.05
2017-04-02T10:31:14.412Z,19.61
2017-04-02T10:32:14.398Z,19.83
2017-04-02T10:33:14.396Z,19.83
2017-04-02T10:34:14.387Z,19.88
2017-04-02T10:35:14.386Z,20.28
2017-04-02T10:36:14.072Z,20.28
2017-04-02T10:37:14.383Z,20.46
2017-04-02T10:38:14.623Z,20.39
2017-04-02T10:39:14.407Z,20.54
2017-04-02T10:40:14.366Z,20.06
2017-04-02T10:41:14.051Z,19.63
2017-04-02T10:42:14.359Z,19.53
2017-04-02T10:43:14.362Z,19.5
2017-04-02T10:44:14.546Z,19.72
2017-04-02T10:45:14.339Z,19.98
2017-04-02T10:46:14.334Z,20.23
2017-04-02T10:47:13.703Z,20.13
2017-04-02T10:48:14.334Z,19.94
2017-04-02T10:49:14.321Z,19.91
2017-04-02T10:50:14.319Z,19.91
2017-04-02T10:51:14.314Z,19.9
2017-04-02T10:52:14.316Z,19.94
2017-04-02T10:53:14.307Z,19.57
2017-04-02T10:54:14.296Z,19.95
2017-04-02T10:55:14.295Z,20.5
2017-04-02T10:56:14.292Z,20.42
2017-04-02T10:57:14.290Z,20.47
2017-04-02T10:58:14.285Z,20.42
2017-04-02T10:59:14.284Z,20.1
2017-04-02T11:00:14.288Z,19.87
2017-04-02T11:01:14.273Z,20.1
2017-04-02T11:02:14.290Z,20.31
2017-04-02T11:03:14.288Z,20.86
2017-04-02T11:04:14.258Z,20.71
2017-04-02T11:05:14.257Z,20.23
2017-04-02T11:06:14.259Z,20
2017-04-02T11:07:14.252Z,19.65
2017-04-02T11:08:14.259Z,19.46
2017-04-02T11:09:14.262Z,19.38
2017-04-02T11:10:14.244Z,19.36
2017-04-02T11:11:14.244Z,19.32
2017-04-02T11:12:14.240Z,19.35
2017-04-02T11:13:14.304Z,19.66
2017-04-02T11:14:14.227Z,20.13
2017-04-02T11:15:14.224Z,19.98
2017-04-02T11:16:14.225Z,19.76
2017-04-02T11:17:14.272Z,19.48
2017-04-02T11:18:14.223Z,19.38
2017-04-02T11:19:14.230Z,19.18
2017-04-02T11:20:14.226Z,18.91
2017-04-02T11:21:14.203Z,18.73
2017-04-02T11:22:14.202Z,18.76
2017-04-02T11:23:14.247Z,18.7
2017-04-02T11:24:14.198Z,18.37
2017-04-02T11:25:14.188Z,18.55
2017-04-02T11:26:14.176Z,18.52
2017-04-02T11:27:13.863Z,18.4
2017-04-02T11:28:14.373Z,18.62
2017-04-02T11:29:13.851Z,18.99
2017-04-02T11:30:13.854Z,19.4
2017-04-02T11:31:13.839Z,19.84
2017-04-02T11:32:14.150Z,19.75
2017-04-02T11:33:14.148Z,19.55
2017-04-02T11:34:14.146Z,19.17
2017-04-02T11:35:14.138Z,19.11
2017-04-02T11:36:14.130Z,19.23
2017-04-02T11:37:14.173Z,19.6
2017-04-02T11:38:13.495Z,20.05
2017-04-02T11:39:14.123Z,20.39
2017-04-02T11:40:14.117Z,20.31
2017-04-02T11:41:14.114Z,20.09
2017-04-02T11:42:14.106Z,19.88
2017-04-02T11:43:14.102Z,19.8
2017-04-02T11:44:13.829Z,20.1
2017-04-02T11:45:13.786Z,20.38
2017-04-02T11:46:14.095Z,20.81
2017-04-02T11:47:14.085Z,21.26
2017-04-02T11:48:14.084Z,21.38
2017-04-02T11:49:14.091Z,21.97
2017-04-02T11:50:14.081Z,22.37
2017-04-02T11:51:14.073Z,22.23
2017-04-02T11:52:14.079Z,22.43
2017-04-02T11:53:14.071Z,22.1
2017-04-02T11:54:14.070Z,21.82
2017-04-02T11:55:14.066Z,21.81
2017-04-02T11:56:14.217Z,21.99
2017-04-02T11:57:14.069Z,21.98
2017-04-02T11:58:14.065Z,22.49
2017-04-02T11:59:13.754Z,22.29
2017-04-02T12:00:14.074Z,22.47
2017-04-02T12:01:14.064Z,22.1
2017-04-02T12:02:14.069Z,22.68
2017-04-02T12:03:14.064Z,22.75
2017-04-02T12:04:13.756Z,21.27
2017-04-02T12:05:13.757Z,21.13
2017-04-02T12:06:13.770Z,20.96
2017-04-02T12:07:14.076Z,20.68
2017-04-02T12:08:13.760Z,20.83
2017-04-02T12:09:13.757Z,20.86
2017-04-02T12:10:14.070Z,20.87
2017-04-02T12:11:13.763Z,21.36
2017-04-02T12:12:13.765Z,21.57
2017-04-02T12:13:13.772Z,22.13
2017-04-02T12:14:13.763Z,22.53
2017-04-02T12:15:14.083Z,22.28
2017-04-02T12:16:13.455Z,22.69
2017-04-02T12:17:13.777Z,23.2
2017-04-02T12:18:13.791Z,23.08
2017-04-02T12:19:13.785Z,22.52
2017-04-02T12:20:13.773Z,22.97
2017-04-02T12:21:13.781Z,23.38
2017-04-02T12:22:13.784Z,23.86
2017-04-02T12:23:13.776Z,23.42
2017-04-02T12:24:13.773Z,23.4
2017-04-02T12:25:13.776Z,23.26
2017-04-02T12:26:13.470Z,23.01
2017-04-02T12:27:13.779Z,22.86
2017-04-02T12:28:14.121Z,22.62
2017-04-02T12:29:13.792Z,22.29
2017-04-02T12:30:14.142Z,22.27
2017-04-02T12:31:14.094Z,21.99
2017-04-02T12:32:13.784Z,21.85
2017-04-02T12:33:14.256Z,21.71
2017-04-02T12:34:13.790Z,21.38
2017-04-02T12:35:14.149Z,21.72
2017-04-02T12:36:14.203Z,22.14
2017-04-02T12:37:14.092Z,22.54
2017-04-02T12:38:14.108Z,22.57
2017-04-02T12:39:13.788Z,23.24
2017-04-02T12:40:13.468Z,23.24
2017-04-02T12:41:13.785Z,23.09
2017-04-02T12:42:13.778Z,22.93
2017-04-02T12:43:13.779Z,23.27
2017-04-02T12:44:14.029Z,23.76
2017-04-02T12:45:13.779Z,24.12
2017-04-02T12:46:13.788Z,24
2017-04-02T12:47:13.837Z,23.85
2017-04-02T12:48:13.831Z,23.53
2017-04-02T12:49:13.783Z,23.14
2017-04-02T12:50:13.784Z,23.38
2017-04-02T12:51:14.104Z,23.15
2017-04-02T12:52:13.786Z,23.29
2017-04-02T12:53:13.784Z,23.4
2017-04-02T12:54:13.791Z,23.53
2017-04-02T12:55:14.099Z,23.92